createdAt,value
2018-06-03T00:01:40.589Z,66.20
2018-06-03T00:04:06.815Z,67.10
2018-06-03T00:06:32.992Z,67.30
2018-06-03T00:08:59.574Z,66.80
2018-06-03T00:11:25.775Z,67.10
2018-06-03T00:13:52.722Z,67.70
2018-06-03T00:16:20.464Z,67.70
2018-06-03T00:28:31.761Z,68.70
2018-06-03T00:30:57.931Z,69.70
2018-06-03T00:33:24.124Z,68.60
2018-06-03T00:36:03.486Z,70.20
2018-06-03T00:38:30.166Z,67.40
2018-06-03T00:40:57.081Z,68.10
2018-06-03T00:43:23.328Z,69.30
2018-06-03T00:45:49.512Z,70.50
2018-06-03T00:48:16.450Z,67.60
2018-06-03T00:50:43.362Z,68.00
2018-06-03T00:53:10.306Z,68.40
2018-06-03T00:55:37.362Z,68.00
2018-06-03T00:58:05.065Z,68.20
2018-06-03T01:00:31.267Z,67.70
2018-06-03T01:02:57.493Z,69.30
2018-06-03T01:05:26.098Z,68.20
2018-06-03T01:07:52.286Z,69.30
2018-06-03T01:10:19.994Z,67.90
2018-06-03T01:12:47.247Z,68.50
2018-06-03T01:15:14.345Z,70.10
2018-06-03T01:17:40.543Z,73.10
2018-06-03T01:20:06.802Z,70.80
2018-06-03T01:22:33.797Z,68.40
2018-06-03T01:24:59.988Z,68.10
2018-06-03T01:27:26.975Z,68.60
2018-06-03T01:29:53.562Z,67.80
2018-06-03T01:32:20.141Z,67.90
2018-06-03T01:34:46.325Z,68.10
2018-06-03T01:37:12.537Z,70.30
2018-06-03T01:39:38.723Z,69.30
2018-06-03T01:42:05.332Z,69.40
2018-06-03T01:44:32.254Z,68.20
2018-06-03T01:46:59.956Z,67.70
2018-06-03T01:49:26.214Z,77.30
2018-06-03T01:51:52.415Z,74.60
2018-06-03T01:54:18.635Z,67.90
2018-06-03T01:56:45.625Z,68.00
2018-06-03T01:59:15.739Z,73.30
2018-06-03T02:01:41.933Z,67.50
2018-06-03T02:04:10.398Z,68.10
2018-06-03T02:06:36.988Z,67.60
2018-06-03T02:09:04.311Z,67.50
2018-06-03T02:11:30.869Z,67.00
2018-06-03T02:13:58.217Z,67.30
2018-06-03T02:16:24.356Z,67.60
2018-06-03T02:18:50.902Z,66.80
2018-06-03T02:21:18.098Z,67.40
2018-06-03T02:23:48.613Z,68.00
2018-06-03T02:26:14.818Z,67.30
2018-06-03T02:29:23.221Z,67.40
2018-06-03T02:31:50.750Z,67.30
2018-06-03T02:34:18.273Z,69.80
2018-06-03T02:36:45.944Z,67.90
2018-06-03T02:39:13.501Z,67.90
2018-06-03T02:41:41.002Z,67.50
2018-06-03T02:44:08.535Z,67.50
2018-06-03T02:46:36.034Z,68.30
2018-06-03T02:49:05.537Z,67.90
2018-06-03T02:54:01.936Z,67.90
2018-06-03T02:56:29.758Z,67.80
2018-06-03T02:58:57.273Z,67.80
2018-06-03T03:01:24.886Z,67.80
2018-06-03T03:06:19.894Z,67.70
2018-06-03T03:08:47.460Z,67.50
2018-06-03T03:11:15.400Z,71.10
2018-06-03T03:16:11.458Z,67.50
2018-06-03T03:18:38.964Z,67.70
2018-06-03T03:21:09.641Z,67.80
2018-06-03T03:23:37.166Z,67.80
2018-06-03T03:26:05.897Z,68.10
2018-06-03T03:28:33.489Z,68.10
2018-06-03T03:31:01.056Z,67.80
2018-06-03T03:33:28.610Z,68.80
2018-06-03T03:38:28.977Z,68.30
2018-06-03T03:40:56.641Z,72.10
2018-06-03T03:43:24.801Z,72.10
2018-06-03T03:45:53.584Z,69.30
2018-06-03T03:50:49.612Z,68.70
2018-06-03T03:53:17.421Z,68.70
2018-06-03T03:58:12.374Z,69.50
2018-06-03T04:00:39.886Z,74.50
2018-06-03T04:03:07.535Z,74.20
2018-06-03T04:08:02.569Z,74.80
2018-06-03T04:10:30.960Z,75.40
2018-06-03T04:12:59.072Z,76.80
2018-06-03T04:15:27.561Z,70.10
2018-06-03T04:17:57.176Z,76.30
2018-06-03T04:20:24.669Z,70.10
2018-06-03T04:22:52.601Z,71.00
2018-06-03T04:25:22.106Z,75.10
2018-06-03T04:27:49.938Z,69.90
2018-06-03T04:32:44.814Z,69.20
2018-06-03T04:35:12.385Z,68.80
2018-06-03T04:47:24.947Z,68.50
2018-06-03T04:49:52.429Z,75.10
2018-06-03T04:52:19.949Z,69.40
2018-06-03T04:54:47.870Z,68.80
2018-06-03T04:57:15.452Z,73.00
2018-06-03T04:59:44.950Z,72.10
2018-06-03T05:02:12.518Z,68.30
2018-06-03T05:04:40.177Z,71.80
2018-06-03T05:07:08.839Z,68.50
2018-06-03T05:09:36.397Z,67.80
2018-06-03T05:14:34.528Z,67.90
2018-06-03T05:17:02.082Z,68.40
2018-06-03T05:19:29.672Z,67.80
2018-06-03T05:24:24.699Z,73.10
2018-06-03T05:26:52.171Z,67.60
2018-06-03T05:29:21.341Z,67.70
2018-06-03T05:31:48.913Z,76.80
2018-06-03T05:34:16.464Z,68.50
2018-06-03T05:36:43.981Z,67.10
2018-06-03T05:39:13.012Z,67.10
2018-06-03T05:44:08.125Z,67.90
2018-06-03T05:49:03.224Z,71.30
2018-06-03T05:51:30.714Z,65.10
2018-06-03T05:56:25.644Z,66.20
2018-06-03T06:03:48.092Z,66.30
2018-06-03T06:06:15.585Z,66.50
2018-06-03T06:13:38.104Z,67.50
2018-06-03T06:16:05.951Z,67.10
2018-06-03T06:18:33.452Z,66.50
2018-06-03T06:21:07.665Z,65.50
2018-06-03T06:23:35.195Z,65.00
2018-06-03T06:26:03.235Z,64.40
2018-06-03T06:28:30.754Z,63.90
2018-06-03T06:30:58.300Z,62.50
2018-06-03T06:33:25.801Z,60.90
2018-06-03T06:38:21.317Z,60.00
2018-06-03T06:43:16.379Z,56.10
2018-06-03T06:48:11.839Z,53.80
2018-06-03T06:50:39.392Z,55.00
2018-06-03T06:53:06.937Z,56.30
2018-06-03T06:55:34.518Z,57.00
2018-06-03T07:00:30.832Z,54.90
2018-06-03T07:02:58.351Z,54.60
2018-06-03T07:05:30.604Z,50.50
2018-06-03T07:07:59.096Z,48.70
2018-06-03T07:12:54.565Z,49.90
2018-06-03T07:15:22.141Z,50.90
2018-06-03T07:30:03.894Z,48.00
2018-06-03T07:34:58.951Z,45.00
2018-06-03T07:39:55.860Z,48.20
2018-06-03T07:42:27.032Z,49.40
2018-06-03T07:59:43.313Z,50.40
2018-06-03T08:02:10.862Z,51.00
2018-06-03T08:04:38.439Z,50.10
2018-06-03T08:07:06.402Z,50.00
2018-06-03T08:09:36.288Z,51.60
2018-06-03T08:17:01.210Z,50.40
2018-06-03T08:19:32.607Z,50.70
2018-06-03T08:22:01.803Z,50.20
2018-06-03T08:24:29.427Z,49.70
2018-06-03T08:26:57.302Z,50.90
2018-06-03T08:32:00.005Z,50.40
2018-06-03T08:34:28.139Z,52.70
2018-06-03T08:36:58.885Z,54.20
2018-06-03T08:39:26.497Z,54.10
2018-06-03T08:41:54.035Z,54.00
2018-06-03T08:46:50.656Z,54.60
2018-06-03T08:49:18.228Z,55.50
2018-06-03T09:01:35.995Z,55.00
2018-06-03T09:04:04.433Z,54.80
2018-06-03T09:06:31.984Z,55.00
2018-06-03T09:09:00.056Z,54.60
2018-06-03T09:11:27.623Z,55.90
2018-06-03T09:13:56.195Z,56.30
2018-06-03T09:16:24.186Z,56.50
2018-06-03T09:18:52.464Z,57.20
2018-06-03T09:21:21.939Z,58.00
2018-06-03T09:23:51.392Z,57.50
2018-06-03T09:28:53.830Z,59.30
2018-06-03T09:31:22.046Z,59.40
2018-06-03T09:36:17.163Z,58.40
2018-06-03T09:38:44.681Z,57.10
2018-06-03T09:41:12.356Z,57.90
2018-06-03T09:53:25.084Z,55.50
2018-06-03T09:55:52.657Z,55.20
2018-06-03T09:58:20.206Z,54.60
2018-06-03T10:00:47.773Z,53.80
2018-06-03T10:03:15.633Z,54.50
2018-06-03T10:05:44.541Z,53.70
2018-06-03T10:15:35.632Z,52.60
2018-06-03T10:18:03.272Z,53.80
2018-06-03T10:20:30.860Z,51.10
2018-06-03T10:25:26.755Z,50.30
2018-06-03T10:27:58.109Z,49.20
2018-06-03T10:30:25.733Z,50.40
2018-06-03T10:32:58.197Z,50.40
2018-06-03T10:37:54.447Z,49.90
2018-06-03T10:40:23.515Z,49.30
2018-06-03T10:45:21.524Z,48.50
2018-06-03T10:47:53.002Z,47.30
2018-06-03T10:50:21.987Z,47.50
2018-06-03T10:52:49.529Z,48.10
2018-06-03T10:55:19.681Z,48.20
2018-06-03T11:02:43.392Z,49.60
2018-06-03T11:17:24.804Z,49.10
2018-06-03T11:22:19.943Z,48.80
2018-06-03T11:24:48.929Z,47.00
2018-06-03T11:32:12.734Z,46.00
2018-06-03T11:34:41.377Z,47.10
2018-06-03T11:37:09.035Z,46.10
2018-06-03T11:39:37.443Z,45.10
2018-06-03T11:47:00.757Z,45.60
2018-06-03T11:51:57.316Z,46.60
2018-06-03T11:54:25.945Z,46.30
2018-06-03T11:59:47.026Z,44.90
2018-06-03T12:02:17.414Z,44.70
2018-06-03T12:04:45.209Z,45.80
2018-06-03T12:07:14.783Z,46.60
2018-06-03T12:09:42.419Z,47.10
2018-06-03T12:12:10.000Z,46.80
2018-06-03T12:14:37.550Z,47.10
2018-06-03T12:17:05.407Z,46.60
2018-06-03T12:19:33.582Z,47.10
2018-06-03T12:22:09.293Z,49.10
2018-06-03T12:29:32.480Z,47.70
2018-06-03T12:32:00.347Z,47.80
2018-06-03T12:34:28.309Z,48.60
2018-06-03T12:36:55.874Z,46.80
2018-06-03T12:39:23.505Z,46.70
2018-06-03T12:41:52.202Z,46.50
2018-06-03T12:44:19.823Z,46.20
2018-06-03T12:46:47.423Z,45.60
2018-06-03T12:49:15.745Z,43.90
2018-06-03T13:01:28.384Z,44.60
2018-06-03T13:03:55.956Z,44.90
2018-06-03T13:06:23.846Z,48.50
2018-06-03T13:11:18.789Z,47.90
2018-06-03T13:13:48.380Z,49.80
2018-06-03T13:16:16.065Z,46.80
2018-06-03T13:18:43.655Z,46.70
2018-06-03T13:21:11.236Z,48.00
2018-06-03T13:23:39.507Z,47.40
2018-06-03T13:26:07.716Z,48.20
2018-06-03T13:28:38.599Z,52.20
2018-06-03T13:31:06.308Z,48.60
2018-06-03T13:36:07.764Z,61.10
2018-06-03T13:38:38.992Z,54.40
2018-06-03T13:41:07.556Z,46.60
2018-06-03T13:46:09.663Z,52.00
2018-06-03T13:48:37.262Z,46.90
2018-06-03T13:51:04.955Z,51.70
2018-06-03T13:56:01.673Z,47.20
2018-06-03T13:58:31.335Z,47.10
2018-06-03T14:00:58.886Z,43.70
2018-06-03T14:05:54.140Z,49.20
2018-06-03T14:08:21.732Z,45.20
2018-06-03T14:13:20.234Z,45.20
2018-06-03T14:15:48.749Z,45.80
2018-06-03T14:18:17.527Z,46.10
2018-06-03T14:20:45.769Z,46.10
2018-06-03T14:25:42.224Z,45.20
2018-06-03T14:28:09.790Z,46.20
2018-06-03T14:30:37.712Z,46.60
2018-06-03T14:33:05.587Z,46.40
2018-06-03T14:35:33.427Z,46.50
2018-06-03T14:38:00.983Z,46.00
2018-06-03T14:40:32.841Z,46.00
2018-06-03T14:45:27.829Z,45.40
2018-06-03T14:47:56.124Z,49.90
2018-06-03T14:50:23.723Z,45.80
2018-06-03T14:52:51.762Z,49.10
2018-06-03T14:55:19.611Z,46.20
2018-06-03T15:01:21.880Z,46.30
2018-06-03T15:03:50.469Z,46.30
2018-06-03T15:06:18.531Z,46.30
2018-06-03T15:08:46.902Z,46.40
2018-06-03T15:11:16.111Z,46.30
2018-06-03T15:13:43.718Z,46.00
2018-06-03T15:16:11.588Z,46.20
2018-06-03T15:18:39.156Z,46.30
2018-06-03T15:21:06.879Z,46.90
2018-06-03T15:23:35.264Z,46.20
2018-06-03T15:26:02.821Z,53.90
2018-06-03T15:28:30.378Z,46.20
2018-06-03T15:31:01.288Z,47.00
2018-06-03T15:35:56.259Z,46.90
2018-06-03T15:38:24.206Z,47.30
2018-06-03T15:40:52.058Z,47.80
2018-06-03T15:43:20.242Z,48.20
2018-06-03T15:45:47.743Z,47.00
2018-06-03T15:48:15.615Z,46.10
2018-06-03T15:50:44.044Z,46.10
2018-06-03T15:53:13.159Z,46.40
2018-06-03T15:55:40.730Z,46.50
2018-06-03T15:58:08.293Z,47.10
2018-06-03T16:00:35.922Z,47.70
2018-06-03T16:03:09.095Z,47.20
2018-06-03T16:05:36.617Z,47.50
2018-06-03T16:08:04.594Z,47.80
2018-06-03T16:10:32.722Z,48.20
2018-06-03T16:13:00.430Z,48.40
2018-06-03T16:15:29.001Z,48.40
2018-06-03T16:17:56.545Z,49.20
2018-06-03T16:20:24.826Z,48.70
2018-06-03T16:22:53.720Z,50.10
2018-06-03T16:30:17.228Z,49.20
2018-06-03T16:32:44.798Z,50.50
2018-06-03T16:35:12.382Z,49.60
2018-06-03T16:37:40.087Z,49.50
2018-06-03T16:40:08.076Z,49.10
2018-06-03T16:42:35.643Z,49.20
2018-06-03T16:45:04.600Z,50.00
2018-06-03T16:47:33.418Z,48.40
2018-06-03T16:50:02.037Z,48.40
2018-06-03T16:52:34.576Z,48.90
2018-06-03T16:55:04.178Z,49.50
2018-06-03T16:57:32.917Z,49.40
2018-06-03T17:00:04.895Z,47.60
2018-06-03T17:02:32.449Z,49.00
2018-06-03T17:05:00.928Z,49.60
2018-06-03T17:07:28.556Z,49.10
2018-06-03T17:09:56.629Z,51.90
2018-06-03T17:12:24.728Z,50.00
2018-06-03T17:14:53.334Z,50.00
2018-06-03T17:17:21.401Z,49.70
2018-06-03T17:19:49.819Z,50.00
2018-06-03T17:22:17.336Z,49.00
2018-06-03T17:24:45.519Z,48.80
2018-06-03T17:27:13.049Z,48.60
2018-06-03T17:29:40.649Z,48.60
2018-06-03T17:32:09.525Z,49.40
2018-06-03T17:34:37.079Z,49.40
2018-06-03T17:37:04.723Z,47.80
2018-06-03T17:39:32.467Z,48.60
2018-06-03T17:42:00.115Z,48.40
2018-06-03T17:44:27.707Z,49.40
2018-06-03T17:46:55.302Z,48.80
2018-06-03T17:49:22.961Z,47.60
2018-06-03T17:51:50.883Z,49.00
2018-06-03T17:54:18.437Z,49.30
2018-06-03T18:11:27.831Z,48.90
2018-06-03T18:13:56.040Z,49.90
2018-06-03T18:16:23.664Z,49.70
2018-06-03T18:18:51.237Z,49.60
2018-06-03T18:21:18.778Z,50.60
2018-06-03T18:23:46.416Z,49.70
2018-06-03T18:26:14.299Z,49.90
2018-06-03T18:28:42.018Z,49.80
2018-06-03T18:33:42.656Z,50.40
2018-06-03T18:36:10.512Z,50.40
2018-06-03T18:38:41.182Z,50.30
2018-06-03T18:41:08.880Z,50.60
2018-06-03T18:46:10.864Z,50.10
2018-06-03T18:48:39.257Z,50.10
2018-06-03T18:51:06.829Z,50.20
2018-06-03T18:53:34.731Z,50.90
2018-06-03T18:56:02.357Z,50.60
2018-06-03T18:58:30.272Z,50.40
2018-06-03T19:00:58.453Z,51.00
2018-06-03T19:03:26.038Z,50.90
2018-06-03T19:05:53.602Z,51.50
2018-06-03T19:10:48.686Z,52.20
2018-06-03T19:13:16.382Z,53.40
2018-06-03T19:15:44.109Z,53.40
2018-06-03T19:18:11.788Z,54.40
2018-06-03T19:25:41.365Z,55.10
2018-06-03T19:28:09.065Z,55.20
2018-06-03T19:33:04.249Z,55.00
2018-06-03T19:35:31.932Z,55.00
2018-06-03T19:37:59.493Z,55.20
2018-06-03T19:40:29.283Z,55.10
2018-06-03T19:42:56.858Z,54.90
2018-06-03T19:45:24.537Z,55.10
2018-06-03T19:50:22.650Z,54.90
2018-06-03T19:52:52.573Z,55.20
2018-06-03T19:57:47.723Z,55.50
2018-06-03T20:00:15.353Z,55.50
2018-06-03T20:02:42.905Z,55.50
2018-06-03T20:05:10.605Z,55.40
2018-06-03T20:07:38.340Z,55.20
2018-06-03T20:10:07.131Z,54.90
2018-06-03T20:12:35.734Z,55.00
2018-06-03T20:15:03.365Z,54.80
2018-06-03T20:17:33.981Z,54.80
2018-06-03T20:20:01.999Z,54.70
2018-06-03T20:22:32.582Z,54.70
2018-06-03T20:27:28.011Z,54.40
2018-06-03T21:24:03.088Z,56.20
2018-06-03T21:26:33.464Z,56.10
2018-06-03T21:29:07.125Z,55.90
2018-06-03T21:31:36.358Z,56.00
2018-06-03T21:34:06.596Z,56.20
2018-06-03T21:36:34.825Z,55.80
2018-06-03T21:39:09.828Z,57.00
2018-06-03T21:41:39.139Z,55.70
2018-06-03T21:44:13.429Z,56.00
2018-06-03T21:46:43.668Z,56.60
2018-06-03T21:49:14.314Z,56.20
2018-06-03T21:51:42.244Z,55.90
2018-06-03T21:56:38.638Z,56.30
2018-06-03T22:01:35.940Z,56.50
2018-06-03T22:04:06.255Z,56.40
2018-06-03T22:14:01.395Z,56.20
2018-06-03T22:16:31.491Z,56.30
2018-06-03T22:18:59.901Z,58.70
2018-06-03T22:21:28.984Z,56.20
2018-06-03T22:23:57.916Z,56.20
2018-06-03T22:26:27.090Z,56.20
2018-06-03T22:28:56.475Z,56.30
2018-06-03T22:31:28.695Z,56.50
2018-06-03T22:33:57.544Z,56.80
2018-06-03T22:36:27.353Z,56.70
2018-06-03T22:38:56.541Z,60.00
2018-06-03T22:41:25.325Z,57.00
2018-06-03T22:43:54.817Z,59.50
2018-06-03T22:46:23.036Z,63.50
2018-06-03T22:48:51.559Z,62.10
2018-06-03T22:56:20.472Z,58.40
2018-06-03T22:58:52.581Z,57.50
2018-06-03T23:03:49.141Z,58.20
2018-06-03T23:08:46.191Z,59.10
2018-06-03T23:11:15.595Z,60.10
2018-06-03T23:16:12.726Z,60.60
2018-06-03T23:18:41.660Z,66.40
2018-06-03T23:21:11.625Z,58.30
2018-06-03T23:23:39.805Z,58.20
2018-06-03T23:26:08.504Z,61.60
2018-06-03T23:28:41.152Z,58.30
2018-06-03T23:31:09.577Z,66.20
2018-06-03T23:33:39.312Z,59.40
2018-06-03T23:36:10.198Z,58.40
2018-06-03T23:43:36.364Z,58.40
